Time;durP1;ratioP1;P1;durP2;ratioP2;P2;SDS_P1;SDS_P2;PMS_P1;PMS_P2;Temp;Humidity;BMP_temperature;BMP_pressure;BME280_temperature;BME280_humidity;BME280_pressure;Samples;Min_cycle;Max_cycle;Signal;HPM_P1;HPM_P2
2022/06/12 00:01:21;;;;;;;;;;;;;;;;;;5065805;28;19908;-49
2022/06/12 00:03:48;;;;;;;;;;;;;;;;;;5066268;28;19908;-47
2022/06/12 00:06:14;;;;;;;;;;;;;;;;;;5066625;28;20310;-49
2022/06/12 00:08:40;;;;;;;;;;;;;;;;;;5066079;28;19940;-47
2022/06/12 00:11:06;;;;;;;;;;;;;;;;;;5069177;28;19915;-44
2022/06/12 00:13:32;;;;;;;;;;;;;;;;;;5073238;28;20359;-46
2022/06/12 00:15:58;;;;;;;;;;;;;;;;;;5073266;28;19908;-48
2022/06/12 00:18:24;;;;;;;;;;;;;;;;;;5072342;28;19928;-48
2022/06/12 00:21:10;;;;;;;;;;;;;;;;;;5072944;28;19908;-46
2022/06/12 00:23:36;;;;;;;;;;;;;;;;;;5073215;28;20598;-48
2022/06/12 00:26:02;;;;;;;;;;;;;;;;;;5060869;28;19995;-49
2022/06/12 00:28:28;;;;;;;;;;;;;;;;;;5052962;28;20000;-46
2022/06/12 00:30:54;;;;;;;;;;;;;;;;;;5053320;28;20026;-47
2022/06/12 00:33:19;;;;;;;;;;;;;;;;;;5052937;28;19909;-48
2022/06/12 00:35:45;;;;;;;;;;;;;;;;;;5053269;28;19927;-48
2022/06/12 00:38:11;;;;;;;;;;;;;;;;;;5068162;28;19912;-49
2022/06/12 00:40:37;;;;;;;;;;;;;;;;;;5067537;28;19923;-49
2022/06/12 00:43:03;;;;;;;;;;;;;;;;;;5072022;28;19912;-47
2022/06/12 00:45:29;;;;;;;;;;;;;;;;;;5073143;28;20302;-47
2022/06/12 00:47:55;;;;;;;;;;;;;;;;;;5073234;28;19912;-48
2022/06/12 00:50:21;;;;;;;;;;;;;;;;;;5073173;28;20013;-45
2022/06/12 00:52:47;;;;;;;;;;;;;;;;;;5059025;28;19912;-47
2022/06/12 00:55:13;;;;;;;;;;;;;;;;;;5052976;28;19924;-45
2022/06/12 00:57:39;;;;;;;;;;;;;;;;;;5052528;28;19989;-48
2022/06/12 01:00:05;;;;;;;;;;;;;;;;;;5052680;28;19909;-45
2022/06/12 01:02:31;;;;;;;;;;;;;;;;;;5052839;28;19911;-48
2022/06/12 01:07:42;;;;;;;;;;;;;;;;;;5053112;28;19920;-46
2022/06/12 01:10:07;;;;;;;;;;;;;;;;;;5052902;28;19912;-49
2022/06/12 01:12:33;;;;;;;;;;;;;;;;;;5053032;28;19931;-48
2022/06/12 01:14:59;;;;;;;;;;;;;;;;;;5052780;28;20007;-49
2022/06/12 01:17:26;;;;;;;;;;;;;;;;;;5053060;28;19909;-46
2022/06/12 01:19:53;;;;;;;;;;;;;;;;;;5053088;28;20272;-48
2022/06/12 01:22:19;;;;;;;;;;;;;;;;;;5068290;28;19978;-47
2022/06/12 01:24:45;;;;;;;;;;;;;;;;;;5069214;28;19909;-48
2022/06/12 01:27:11;;;;;;;;;;;;;;;;;;5069428;28;20000;-46
2022/06/12 01:29:37;;;;;;;;;;;;;;;;;;5069579;28;19904;-48
2022/06/12 01:32:03;;;;;;;;;;;;;;;;;;5068893;28;19905;-48
2022/06/12 01:34:29;;;;;;;;;;;;;;;;;;5068951;28;19911;-47
2022/06/12 01:36:55;;;;;;;;;;;;;;;;;;5069609;28;19911;-46
2022/06/12 01:39:21;;;;;;;;;;;;;;;;;;5068740;28;19969;-47
2022/06/12 01:41:47;;;;;;;;;;;;;;;;;;5068994;28;20322;-47
2022/06/12 01:44:13;;;;;;;;;;;;;;;;;;5069108;28;19905;-47
2022/06/12 01:46:41;;;;;;;;;;;;;;;;;;5069063;28;19908;-49
2022/06/12 01:49:07;;;;;;;;;;;;;;;;;;5068312;28;19904;-48
2022/06/12 01:51:33;;;;;;;;;;;;;;;;;;5068310;28;19965;-47
2022/06/12 01:53:59;;;;;;;;;;;;;;;;;;5068770;28;19908;-49
2022/06/12 01:56:25;;;;;;;;;;;;;;;;;;5068563;28;20003;-49
2022/06/12 01:58:51;;;;;;;;;;;;;;;;;;5068595;28;19931;-47
2022/06/12 02:01:17;;;;;;;;;;;;;;;;;;5068960;28;19905;-48
2022/06/12 02:03:43;;;;;;;;;;;;;;;;;;5068160;28;19955;-45
2022/06/12 02:06:09;;;;;;;;;;;;;;;;;;5068747;28;20336;-47
2022/06/12 02:08:35;;;;;;;;;;;;;;;;;;5068587;28;19915;-45
2022/06/12 02:13:11;;;;;;;;;;;;;;;;;;5066973;28;19939;-47
2022/06/12 02:13:46;;;;;;;;;;;;;;;;;;5068079;28;19904;-48
2022/06/12 02:16:12;;;;;;;;;;;;;;;;;;5067196;28;19904;-48
2022/06/12 02:18:38;;;;;;;;;;;;;;;;;;5068232;28;20349;-46
2022/06/12 02:21:04;;;;;;;;;;;;;;;;;;5068208;28;19927;-46
2022/06/12 02:23:30;;;;;;;;;;;;;;;;;;5068440;28;19908;-48
2022/06/12 02:25:56;;;;;;;;;;;;;;;;;;5068059;28;20306;-48
2022/06/12 02:28:22;;;;;;;;;;;;;;;;;;5068534;28;19909;-47
2022/06/12 02:30:48;;;;;;;;;;;;;;;;;;5068209;28;20284;-47
2022/06/12 02:33:14;;;;;;;;;;;;;;;;;;5060338;28;19915;-46
2022/06/12 02:35:40;;;;;;;;;;;;;;;;;;5048270;28;19904;-47
2022/06/12 02:38:06;;;;;;;;;;;;;;;;;;5048212;28;19908;-46
2022/06/12 02:40:32;;;;;;;;;;;;;;;;;;5047783;28;19905;-48
2022/06/12 02:42:58;;;;;;;;;;;;;;;;;;5048124;28;20354;-48
2022/06/12 02:45:24;;;;;;;;;;;;;;;;;;5048720;28;19908;-48
2022/06/12 02:47:51;;;;;;;;;;;;;;;;;;5054472;28;19912;-46
2022/06/12 02:50:17;;;;;;;;;;;;;;;;;;5067972;28;19916;-44
2022/06/12 02:52:43;;;;;;;;;;;;;;;;;;5067711;28;19912;-49
2022/06/12 02:55:08;;;;;;;;;;;;;;;;;;5058291;28;19966;-45
2022/06/12 02:57:34;;;;;;;;;;;;;;;;;;5048418;28;19912;-48
2022/06/12 03:00:02;;;;;;;;;;;;;;;;;;5047705;28;19912;-44
2022/06/12 03:02:28;;;;;;;;;;;;;;;;;;5047631;28;19901;-45
2022/06/12 03:04:54;;;;;;;;;;;;;;;;;;5047753;28;19908;-48
2022/06/12 03:07:19;;;;;;;;;;;;;;;;;;5047430;28;19908;-48
2022/06/12 03:09:45;;;;;;;;;;;;;;;;;;5047390;28;19915;-45
2022/06/12 03:12:12;;;;;;;;;;;;;;;;;;5059524;28;20013;-45
2022/06/12 03:14:38;;;;;;;;;;;;;;;;;;5067643;28;19938;-47
2022/06/12 03:17:04;;;;;;;;;;;;;;;;;;5050847;28;19912;-48
2022/06/12 03:19:30;;;;;;;;;;;;;;;;;;5047514;28;19936;-46
2022/06/12 03:21:56;;;;;;;;;;;;;;;;;;5047839;28;20324;-48
2022/06/12 03:24:22;;;;;;;;;;;;;;;;;;5047571;28;20047;-48
2022/06/12 03:26:48;;;;;;;;;;;;;;;;;;5046811;28;19913;-47
2022/06/12 03:29:13;;;;;;;;;;;;;;;;;;5046900;28;20007;-47
2022/06/12 03:31:39;;;;;;;;;;;;;;;;;;5061135;28;19916;-48
2022/06/12 03:34:05;;;;;;;;;;;;;;;;;;5066969;28;20022;-48
2022/06/12 03:36:31;;;;;;;;;;;;;;;;;;5065375;28;19908;-47
2022/06/12 03:38:57;;;;;;;;;;;;;;;;;;5047590;28;19904;-44
2022/06/12 03:41:23;;;;;;;;;;;;;;;;;;5047771;28;20430;-49
2022/06/12 03:43:49;;;;;;;;;;;;;;;;;;5046904;28;19904;-45
2022/06/12 03:46:15;;;;;;;;;;;;;;;;;;5046295;28;19911;-46
2022/06/12 03:48:41;;;;;;;;;;;;;;;;;;5062808;28;19916;-45
2022/06/12 03:51:07;;;;;;;;;;;;;;;;;;5066947;28;19908;-47
2022/06/12 03:53:34;;;;;;;;;;;;;;;;;;5066813;28;19910;-48
2022/06/12 03:58:44;;;;;;;;;;;;;;;;;;5046487;28;19931;-48
2022/06/12 04:01:10;;;;;;;;;;;;;;;;;;5047405;28;19909;-49
2022/06/12 04:03:36;;;;;;;;;;;;;;;;;;5046622;28;19916;-46
2022/06/12 04:06:02;;;;;;;;;;;;;;;;;;5046396;28;19905;-46
2022/06/12 04:08:28;;;;;;;;;;;;;;;;;;5046550;28;19908;-48
2022/06/12 04:10:54;;;;;;;;;;;;;;;;;;5046972;28;19911;-46
2022/06/12 04:13:20;;;;;;;;;;;;;;;;;;5046752;28;19901;-45
2022/06/12 04:15:47;;;;;;;;;;;;;;;;;;5049658;28;20023;-47
2022/06/12 04:18:13;;;;;;;;;;;;;;;;;;5066561;28;19943;-47
2022/06/12 04:20:39;;;;;;;;;;;;;;;;;;5066499;28;20390;-45
2022/06/12 04:23:05;;;;;;;;;;;;;;;;;;5065286;28;19912;-47
2022/06/12 04:25:31;;;;;;;;;;;;;;;;;;5048920;28;19915;-45
2022/06/12 04:27:57;;;;;;;;;;;;;;;;;;5046844;28;19912;-47
2022/06/12 04:30:23;;;;;;;;;;;;;;;;;;5046721;28;19950;-45
2022/06/12 04:32:49;;;;;;;;;;;;;;;;;;5046121;28;19909;-47
2022/06/12 04:35:15;;;;;;;;;;;;;;;;;;5046498;28;19938;-48
2022/06/12 04:37:42;;;;;;;;;;;;;;;;;;5046423;28;19912;-45
2022/06/12 04:40:08;;;;;;;;;;;;;;;;;;5062772;28;19950;-47
2022/06/12 04:42:34;;;;;;;;;;;;;;;;;;5066652;28;19955;-48
2022/06/12 04:45:00;;;;;;;;;;;;;;;;;;5064460;28;19911;-47
2022/06/12 04:47:26;;;;;;;;;;;;;;;;;;5046281;28;20003;-48
2022/06/12 04:49:55;;;;;;;;;;;;;;;;;;5046053;28;20023;-46
2022/06/12 04:52:21;;;;;;;;;;;;;;;;;;5046284;28;19908;-48
2022/06/12 04:54:47;;;;;;;;;;;;;;;;;;5046180;28;21039;-48
2022/06/12 04:57:14;;;;;;;;;;;;;;;;;;5046481;28;19908;-46
2022/06/12 04:59:40;;;;;;;;;;;;;;;;;;5050611;28;20277;-45
2022/06/12 05:02:07;;;;;;;;;;;;;;;;;;5069675;28;19965;-46
2022/06/12 05:04:33;;;;;;;;;;;;;;;;;;5069720;28;19961;-48
2022/06/12 05:06:59;;;;;;;;;;;;;;;;;;5069884;28;19912;-48
2022/06/12 05:09:25;;;;;;;;;;;;;;;;;;5070305;28;19904;-46
2022/06/12 05:11:51;;;;;;;;;;;;;;;;;;5064403;28;20399;-46
2022/06/12 05:14:16;;;;;;;;;;;;;;;;;;5049601;28;19908;-47
2022/06/12 05:16:43;;;;;;;;;;;;;;;;;;5049476;28;19993;-45
2022/06/12 05:19:08;;;;;;;;;;;;;;;;;;5049746;28;19989;-46
2022/06/12 05:21:34;;;;;;;;;;;;;;;;;;5049469;28;19947;-46
2022/06/12 05:24:00;;;;;;;;;;;;;;;;;;5049372;28;20011;-46
2022/06/12 05:26:26;;;;;;;;;;;;;;;;;;5053228;28;19912;-45
2022/06/12 05:28:52;;;;;;;;;;;;;;;;;;5069897;28;20315;-49
2022/06/12 05:31:18;;;;;;;;;;;;;;;;;;5069357;28;19918;-48
2022/06/12 05:33:44;;;;;;;;;;;;;;;;;;5068993;28;19936;-45
2022/06/12 05:36:10;;;;;;;;;;;;;;;;;;5069420;28;19905;-48
2022/06/12 05:38:36;;;;;;;;;;;;;;;;;;5051754;28;19908;-47
2022/06/12 05:41:03;;;;;;;;;;;;;;;;;;5048966;28;19917;-44
2022/06/12 05:43:29;;;;;;;;;;;;;;;;;;5049182;28;19912;-49
2022/06/12 05:45:55;;;;;;;;;;;;;;;;;;5060419;28;19904;-49
2022/06/12 05:48:21;;;;;;;;;;;;;;;;;;5069189;28;19920;-46
2022/06/12 05:50:47;;;;;;;;;;;;;;;;;;5061204;28;19923;-47
2022/06/12 05:53:14;;;;;;;;;;;;;;;;;;5050667;28;19909;-47
2022/06/12 05:55:40;;;;;;;;;;;;;;;;;;5049721;28;20417;-45
2022/06/12 05:58:07;;;;;;;;;;;;;;;;;;5065459;28;19920;-48
2022/06/12 06:00:33;;;;;;;;;;;;;;;;;;5067795;28;19966;-47
2022/06/12 06:02:59;;;;;;;;;;;;;;;;;;5068045;28;20505;-46
2022/06/12 06:05:25;;;;;;;;;;;;;;;;;;5059984;28;19948;-46
2022/06/12 06:07:51;;;;;;;;;;;;;;;;;;5048406;28;19943;-49
2022/06/12 06:10:17;;;;;;;;;;;;;;;;;;5048549;28;19904;-47
2022/06/12 06:12:43;;;;;;;;;;;;;;;;;;5048741;28;19908;-45
2022/06/12 06:15:10;;;;;;;;;;;;;;;;;;5048769;28;19955;-45
2022/06/12 06:17:36;;;;;;;;;;;;;;;;;;5048954;28;20403;-49
2022/06/12 06:20:02;;;;;;;;;;;;;;;;;;5056406;28;19948;-46
2022/06/12 06:22:28;;;;;;;;;;;;;;;;;;5068934;28;19926;-44
2022/06/12 06:24:54;;;;;;;;;;;;;;;;;;5068834;28;19908;-48
2022/06/12 06:27:20;;;;;;;;;;;;;;;;;;5068591;28;19912;-47
2022/06/12 06:29:45;;;;;;;;;;;;;;;;;;5067737;28;19973;-49
2022/06/12 06:32:11;;;;;;;;;;;;;;;;;;5053377;28;20756;-45
2022/06/12 06:34:37;;;;;;;;;;;;;;;;;;5048141;28;19909;-47
2022/06/12 06:37:03;;;;;;;;;;;;;;;;;;5059582;28;19916;-49
2022/06/12 06:39:29;;;;;;;;;;;;;;;;;;5068077;28;19991;-47
2022/06/12 06:41:55;;;;;;;;;;;;;;;;;;5068596;28;19955;-48
2022/06/12 06:47:06;;;;;;;;;;;;;;;;;;5067556;28;20014;-45
2022/06/12 06:49:32;;;;;;;;;;;;;;;;;;5068158;28;20002;-45
2022/06/12 06:51:58;;;;;;;;;;;;;;;;;;5068197;28;19991;-45
2022/06/12 06:54:24;;;;;;;;;;;;;;;;;;5068035;28;20015;-45
2022/06/12 06:56:50;;;;;;;;;;;;;;;;;;5067640;28;19952;-47
2022/06/12 06:59:16;;;;;;;;;;;;;;;;;;5067593;28;19959;-48
2022/06/12 07:01:42;;;;;;;;;;;;;;;;;;5066872;28;19908;-47
2022/06/12 07:04:08;;;;;;;;;;;;;;;;;;5051260;28;19962;-47
2022/06/12 07:06:34;;;;;;;;;;;;;;;;;;5047796;28;20000;-48
2022/06/12 07:09:00;;;;;;;;;;;;;;;;;;5053816;28;19909;-45
2022/06/12 07:11:25;;;;;;;;;;;;;;;;;;5048247;28;19911;-49
2022/06/12 07:13:51;;;;;;;;;;;;;;;;;;5052892;28;19908;-48
2022/06/12 07:16:17;;;;;;;;;;;;;;;;;;5067336;28;20332;-47
2022/06/12 07:18:43;;;;;;;;;;;;;;;;;;5066948;28;19912;-47
2022/06/12 07:21:09;;;;;;;;;;;;;;;;;;5066120;28;19904;-45
2022/06/12 07:23:36;;;;;;;;;;;;;;;;;;5066214;28;19908;-45
2022/06/12 07:26:04;;;;;;;;;;;;;;;;;;5067877;28;19991;-47
2022/06/12 07:28:30;;;;;;;;;;;;;;;;;;5066691;28;19913;-49
2022/06/12 07:30:56;;;;;;;;;;;;;;;;;;5071266;28;20446;-48
2022/06/12 07:33:22;;;;;;;;;;;;;;;;;;5086957;28;19908;-47
2022/06/12 07:35:48;;;;;;;;;;;;;;;;;;5085758;28;19912;-46
2022/06/12 07:38:13;;;;;;;;;;;;;;;;;;5087210;28;19947;-46
2022/06/12 07:40:39;;;;;;;;;;;;;;;;;;5067347;28;19912;-46
2022/06/12 07:43:05;;;;;;;;;;;;;;;;;;5054354;28;19919;-44
2022/06/12 07:45:31;;;;;;;;;;;;;;;;;;5066513;28;19904;-45
2022/06/12 07:47:58;;;;;;;;;;;;;;;;;;5068425;28;19916;-48
2022/06/12 07:50:24;;;;;;;;;;;;;;;;;;5065688;28;19916;-46
2022/06/12 07:52:50;;;;;;;;;;;;;;;;;;5067417;28;19915;-48
2022/06/12 07:55:15;;;;;;;;;;;;;;;;;;5066260;28;19998;-46
2022/06/12 07:57:41;;;;;;;;;;;;;;;;;;5062358;28;19908;-47
2022/06/12 08:00:07;;;;;;;;;;;;;;;;;;5066062;28;19940;-46
2022/06/12 08:02:33;;;;;;;;;;;;;;;;;;5070607;28;19954;-50
2022/06/12 08:04:59;;;;;;;;;;;;;;;;;;5066815;28;19915;-50
2022/06/12 08:07:25;;;;;;;;;;;;;;;;;;5052769;28;19920;-48
2022/06/12 08:09:51;;;;;;;;;;;;;;;;;;5063700;28;19915;-49
2022/06/12 08:12:17;;;;;;;;;;;;;;;;;;5064225;28;19905;-50
2022/06/12 08:14:43;;;;;;;;;;;;;;;;;;5066167;28;19935;-49
2022/06/12 08:17:09;;;;;;;;;;;;;;;;;;5052923;28;19940;-49
2022/06/12 08:22:20;;;;;;;;;;;;;;;;;;5060772;28;19962;-49
2022/06/12 08:24:46;;;;;;;;;;;;;;;;;;5058307;28;19928;-50
2022/06/12 08:27:12;;;;;;;;;;;;;;;;;;5060705;28;19913;-49
2022/06/12 08:29:38;;;;;;;;;;;;;;;;;;5063761;28;20003;-50
2022/06/12 08:32:04;;;;;;;;;;;;;;;;;;5069087;28;19977;-50
2022/06/12 08:34:30;;;;;;;;;;;;;;;;;;5071105;28;19908;-49
2022/06/12 08:36:55;;;;;;;;;;;;;;;;;;5070477;28;19910;-47
2022/06/12 08:39:21;;;;;;;;;;;;;;;;;;5061265;28;19904;-48
2022/06/12 08:41:47;;;;;;;;;;;;;;;;;;5067005;28;19916;-49
2022/06/12 08:44:13;;;;;;;;;;;;;;;;;;5070408;28;19955;-46
2022/06/12 08:46:41;;;;;;;;;;;;;;;;;;5056924;28;19920;-50
2022/06/12 08:49:08;;;;;;;;;;;;;;;;;;5070429;28;20367;-47
2022/06/12 08:51:34;;;;;;;;;;;;;;;;;;5067286;28;20646;-47
2022/06/12 08:54:00;;;;;;;;;;;;;;;;;;5070145;28;19998;-48
2022/06/12 08:56:26;;;;;;;;;;;;;;;;;;5072576;28;19964;-47
2022/06/12 08:58:52;;;;;;;;;;;;;;;;;;5068711;28;19987;-45
2022/06/12 09:01:18;;;;;;;;;;;;;;;;;;5069430;28;20415;-47
2022/06/12 09:03:43;;;;;;;;;;;;;;;;;;5070279;28;19935;-47
2022/06/12 09:06:09;;;;;;;;;;;;;;;;;;5070525;28;20010;-45
2022/06/12 09:08:35;;;;;;;;;;;;;;;;;;5071357;28;19923;-46
2022/06/12 09:11:01;;;;;;;;;;;;;;;;;;5069610;28;19912;-47
2022/06/12 09:13:27;;;;;;;;;;;;;;;;;;5070613;28;19908;-45
2022/06/12 09:15:53;;;;;;;;;;;;;;;;;;5071534;28;19927;-48
2022/06/12 09:18:19;;;;;;;;;;;;;;;;;;5070748;28;19908;-48
2022/06/12 09:20:45;;;;;;;;;;;;;;;;;;5063228;28;19905;-46
2022/06/12 09:23:11;;;;;;;;;;;;;;;;;;5071304;28;19915;-48
2022/06/12 09:25:37;;;;;;;;;;;;;;;;;;5067025;28;19912;-47
2022/06/12 09:28:03;;;;;;;;;;;;;;;;;;5068806;28;19917;-48
2022/06/12 09:30:29;;;;;;;;;;;;;;;;;;5066190;28;19908;-44
2022/06/12 09:32:55;;;;;;;;;;;;;;;;;;5074075;28;19919;-48
2022/06/12 09:35:21;;;;;;;;;;;;;;;;;;5069584;28;19908;-47
2022/06/12 09:40:32;;;;;;;;;;;;;;;;;;5068444;28;19975;-47
2022/06/12 09:42:57;;;;;;;;;;;;;;;;;;5077272;28;19944;-45
2022/06/12 09:45:24;;;;;;;;;;;;;;;;;;5090667;28;19953;-47
2022/06/12 09:47:50;;;;;;;;;;;;;;;;;;5077498;28;19924;-45
2022/06/12 09:50:16;;;;;;;;;;;;;;;;;;5069809;28;19904;-45
2022/06/12 09:52:42;;;;;;;;;;;;;;;;;;5073636;28;19950;-45
2022/06/12 09:55:08;;;;;;;;;;;;;;;;;;5069644;28;19924;-44
2022/06/12 09:57:34;;;;;;;;;;;;;;;;;;5069575;28;20387;-43
2022/06/12 10:00:00;;;;;;;;;;;;;;;;;;5069295;28;20276;-47
2022/06/12 10:02:26;;;;;;;;;;;;;;;;;;5069961;28;19911;-44
2022/06/12 10:04:53;;;;;;;;;;;;;;;;;;5069465;28;19905;-46
2022/06/12 10:07:20;;;;;;;;;;;;;;;;;;5069714;28;20575;-46
2022/06/12 10:09:46;;;;;;;;;;;;;;;;;;5069339;28;19912;-48
2022/06/12 10:12:12;;;;;;;;;;;;;;;;;;5069501;28;19908;-48
2022/06/12 10:14:38;;;;;;;;;;;;;;;;;;5069460;28;19946;-44
2022/06/12 10:17:03;;;;;;;;;;;;;;;;;;5069067;28;20002;-45
2022/06/12 10:19:30;;;;;;;;;;;;;;;;;;5083504;28;19908;-45
2022/06/12 10:21:56;;;;;;;;;;;;;;;;;;5070670;28;19909;-45
2022/06/12 10:24:22;;;;;;;;;;;;;;;;;;5069524;28;20371;-48
2022/06/12 10:26:48;;;;;;;;;;;;;;;;;;5068824;28;19916;-48
2022/06/12 10:29:14;;;;;;;;;;;;;;;;;;5076711;28;19994;-48
2022/06/12 10:31:41;;;;;;;;;;;;;;;;;;5069232;28;19908;-48
2022/06/12 10:34:07;;;;;;;;;;;;;;;;;;5069466;28;19908;-49
2022/06/12 10:36:32;;;;;;;;;;;;;;;;;;5069277;28;20417;-50
2022/06/12 10:38:58;;;;;;;;;;;;;;;;;;5069106;28;19904;-45
2022/06/12 10:41:24;;;;;;;;;;;;;;;;;;5069481;28;19904;-44
2022/06/12 10:43:50;;;;;;;;;;;;;;;;;;5068903;28;19966;-45
2022/06/12 10:46:16;;;;;;;;;;;;;;;;;;5070050;28;19908;-47
2022/06/12 10:48:42;;;;;;;;;;;;;;;;;;5079765;28;19944;-45
2022/06/12 10:51:08;;;;;;;;;;;;;;;;;;5069013;28;19958;-47
2022/06/12 10:53:34;;;;;;;;;;;;;;;;;;5068541;28;19961;-48
2022/06/12 10:56:00;;;;;;;;;;;;;;;;;;5068244;28;19934;-48
2022/06/12 10:58:26;;;;;;;;;;;;;;;;;;5069337;28;19933;-48
2022/06/12 11:00:52;;;;;;;;;;;;;;;;;;5061761;28;19913;-47
2022/06/12 11:03:18;;;;;;;;;;;;;;;;;;5057602;28;20258;-48
2022/06/12 11:05:45;;;;;;;;;;;;;;;;;;5068189;28;19970;-48
2022/06/12 11:08:11;;;;;;;;;;;;;;;;;;5080089;28;19917;-49
2022/06/12 11:10:38;;;;;;;;;;;;;;;;;;5077185;28;19911;-46
2022/06/12 11:13:04;;;;;;;;;;;;;;;;;;5073963;28;19908;-46
2022/06/12 11:15:30;;;;;;;;;;;;;;;;;;5068380;28;19904;-47
2022/06/12 11:17:56;;;;;;;;;;;;;;;;;;5053464;28;20018;-47
2022/06/12 11:20:23;;;;;;;;;;;;;;;;;;5056536;28;19931;-47
2022/06/12 11:22:48;;;;;;;;;;;;;;;;;;5064027;28;19942;-47
2022/06/12 11:25:14;;;;;;;;;;;;;;;;;;5051904;28;20009;-47
2022/06/12 11:27:40;;;;;;;;;;;;;;;;;;5073608;28;19912;-48
2022/06/12 11:30:06;;;;;;;;;;;;;;;;;;5061458;28;19912;-47
2022/06/12 11:32:32;;;;;;;;;;;;;;;;;;5075781;28;19915;-48
2022/06/12 11:34:58;;;;;;;;;;;;;;;;;;5065244;28;19908;-47
2022/06/12 11:37:24;;;;;;;;;;;;;;;;;;5073171;28;20356;-51
2022/06/12 11:39:50;;;;;;;;;;;;;;;;;;5074536;28;19982;-46
2022/06/12 11:42:16;;;;;;;;;;;;;;;;;;5064896;28;19912;-48
2022/06/12 11:44:42;;;;;;;;;;;;;;;;;;5070943;28;20065;-48
2022/06/12 11:47:09;;;;;;;;;;;;;;;;;;5072815;28;19912;-46
2022/06/12 11:49:36;;;;;;;;;;;;;;;;;;5077172;28;20370;-46
2022/06/12 11:52:01;;;;;;;;;;;;;;;;;;5071576;28;19919;-45
2022/06/12 11:54:27;;;;;;;;;;;;;;;;;;5068665;28;19908;-45
2022/06/12 11:56:54;;;;;;;;;;;;;;;;;;5064164;28;19961;-46
2022/06/12 11:59:20;;;;;;;;;;;;;;;;;;5073279;28;19915;-48
2022/06/12 12:01:46;;;;;;;;;;;;;;;;;;5065649;28;19912;-46
2022/06/12 12:04:12;;;;;;;;;;;;;;;;;;5067674;28;20440;-48
2022/06/12 12:06:39;;;;;;;;;;;;;;;;;;5070856;28;19912;-45
2022/06/12 12:09:05;;;;;;;;;;;;;;;;;;5078824;28;19951;-46
2022/06/12 12:11:32;;;;;;;;;;;;;;;;;;5078679;28;19908;-47
2022/06/12 12:13:58;;;;;;;;;;;;;;;;;;5070954;28;20306;-48
2022/06/12 12:16:25;;;;;;;;;;;;;;;;;;5066200;28;19904;-49
2022/06/12 12:18:51;;;;;;;;;;;;;;;;;;5066119;28;20002;-46
2022/06/12 12:21:17;;;;;;;;;;;;;;;;;;5066333;28;19935;-48
2022/06/12 12:23:43;;;;;;;;;;;;;;;;;;5055521;28;19916;-50
2022/06/12 12:26:09;;;;;;;;;;;;;;;;;;5066563;28;20428;-49
2022/06/12 12:28:35;;;;;;;;;;;;;;;;;;5077137;28;19913;-49
2022/06/12 12:31:01;;;;;;;;;;;;;;;;;;5066910;28;20019;-47
2022/06/12 12:33:28;;;;;;;;;;;;;;;;;;5068724;28;19959;-49
2022/06/12 12:41:24;;;;;;;;;;;;;;;;;;5060012;28;19920;-49
2022/06/12 12:43:50;;;;;;;;;;;;;;;;;;5045160;28;19909;-49
2022/06/12 12:46:16;;;;;;;;;;;;;;;;;;5062437;28;19935;-49
2022/06/12 12:48:42;;;;;;;;;;;;;;;;;;5070557;28;19915;-50
2022/06/12 12:51:08;;;;;;;;;;;;;;;;;;5067984;28;19922;-49
2022/06/12 12:53:34;;;;;;;;;;;;;;;;;;5063278;28;19915;-50
2022/06/12 12:56:00;;;;;;;;;;;;;;;;;;5081824;28;19919;-49
2022/06/12 12:58:26;;;;;;;;;;;;;;;;;;5085660;28;19904;-49
2022/06/12 13:00:52;;;;;;;;;;;;;;;;;;5082355;28;20258;-49
2022/06/12 13:03:18;;;;;;;;;;;;;;;;;;5070164;28;19908;-50
2022/06/12 13:05:46;;;;;;;;;;;;;;;;;;5071251;28;20444;-48
2022/06/12 13:08:13;;;;;;;;;;;;;;;;;;5072893;28;19923;-47
2022/06/12 13:10:39;;;;;;;;;;;;;;;;;;5075953;28;19954;-47
2022/06/12 13:13:05;;;;;;;;;;;;;;;;;;5063239;28;19955;-47
2022/06/12 13:15:32;;;;;;;;;;;;;;;;;;5082698;28;20496;-48
2022/06/12 13:17:58;;;;;;;;;;;;;;;;;;5050260;28;20401;-50
2022/06/12 13:20:24;;;;;;;;;;;;;;;;;;5059395;28;19919;-47
2022/06/12 13:22:50;;;;;;;;;;;;;;;;;;5070356;28;19905;-49
2022/06/12 13:25:16;;;;;;;;;;;;;;;;;;5068834;28;20443;-48
2022/06/12 13:27:42;;;;;;;;;;;;;;;;;;5070094;28;19908;-50
2022/06/12 13:30:07;;;;;;;;;;;;;;;;;;5069911;28;19915;-49
2022/06/12 13:32:34;;;;;;;;;;;;;;;;;;5069124;28;19912;-47
2022/06/12 13:35:00;;;;;;;;;;;;;;;;;;5068987;28;19908;-46
2022/06/12 13:37:26;;;;;;;;;;;;;;;;;;5069116;28;19908;-46
2022/06/12 13:39:53;;;;;;;;;;;;;;;;;;5069171;28;19908;-46
2022/06/12 13:42:20;;;;;;;;;;;;;;;;;;5068947;28;19963;-49
2022/06/12 13:44:46;;;;;;;;;;;;;;;;;;5067793;28;20064;-48
2022/06/12 13:47:12;;;;;;;;;;;;;;;;;;5086355;28;19916;-47
2022/06/12 13:49:39;;;;;;;;;;;;;;;;;;5080533;28;20387;-47
2022/06/12 13:52:04;;;;;;;;;;;;;;;;;;5079431;28;20298;-46
2022/06/12 13:54:30;;;;;;;;;;;;;;;;;;5088835;28;19911;-49
2022/06/12 13:56:56;;;;;;;;;;;;;;;;;;5088778;28;19908;-48
2022/06/12 13:59:22;;;;;;;;;;;;;;;;;;5089685;28;19935;-49
2022/06/12 14:01:48;;;;;;;;;;;;;;;;;;5088968;28;19936;-50
2022/06/12 14:04:14;;;;;;;;;;;;;;;;;;5088859;28;20002;-49
2022/06/12 14:06:40;;;;;;;;;;;;;;;;;;5088587;28;19908;-50
2022/06/12 14:09:06;;;;;;;;;;;;;;;;;;5088122;28;19908;-48
2022/06/12 14:11:32;;;;;;;;;;;;;;;;;;5087532;28;19985;-48
2022/06/12 14:13:58;;;;;;;;;;;;;;;;;;5070296;28;19912;-50
2022/06/12 14:16:24;;;;;;;;;;;;;;;;;;5078948;28;20366;-49
2022/06/12 14:18:50;;;;;;;;;;;;;;;;;;5070558;28;19912;-49
2022/06/12 14:21:15;;;;;;;;;;;;;;;;;;5069543;28;19909;-48
2022/06/12 14:23:42;;;;;;;;;;;;;;;;;;5076446;28;19908;-49
2022/06/12 14:26:08;;;;;;;;;;;;;;;;;;5072441;28;19915;-48
2022/06/12 14:28:34;;;;;;;;;;;;;;;;;;5072791;28;20275;-46
2022/06/12 14:31:03;;;;;;;;;;;;;;;;;;5072228;28;19908;-50
2022/06/12 14:33:29;;;;;;;;;;;;;;;;;;5071406;28;20417;-46
2022/06/12 14:35:55;;;;;;;;;;;;;;;;;;5068251;28;19908;-50
2022/06/12 14:38:21;;;;;;;;;;;;;;;;;;5067636;28;20287;-49
2022/06/12 14:40:47;;;;;;;;;;;;;;;;;;5065865;28;19969;-49
2022/06/12 14:43:13;;;;;;;;;;;;;;;;;;5071735;28;19967;-49
2022/06/12 14:45:39;;;;;;;;;;;;;;;;;;5068659;28;19915;-49
2022/06/12 14:48:05;;;;;;;;;;;;;;;;;;5080930;28;19912;-47
2022/06/12 14:50:32;;;;;;;;;;;;;;;;;;5077901;28;19930;-48
2022/06/12 14:52:58;;;;;;;;;;;;;;;;;;5078437;28;19912;-48
2022/06/12 14:55:25;;;;;;;;;;;;;;;;;;5069233;28;20359;-47
2022/06/12 14:57:52;;;;;;;;;;;;;;;;;;5076135;28;19931;-46
2022/06/12 15:00:19;;;;;;;;;;;;;;;;;;5079335;28;19911;-49
2022/06/12 15:02:45;;;;;;;;;;;;;;;;;;5077969;28;19974;-49
2022/06/12 15:05:10;;;;;;;;;;;;;;;;;;5077261;28;19973;-48
2022/06/12 15:07:37;;;;;;;;;;;;;;;;;;5076242;28;20337;-48
2022/06/12 15:10:03;;;;;;;;;;;;;;;;;;5078705;28;19990;-51
2022/06/12 15:12:29;;;;;;;;;;;;;;;;;;5071155;28;20403;-48
2022/06/12 15:14:55;;;;;;;;;;;;;;;;;;5070961;28;19914;-50
2022/06/12 15:17:21;;;;;;;;;;;;;;;;;;5067863;28;20273;-49
2022/06/12 15:19:48;;;;;;;;;;;;;;;;;;5066206;28;19913;-49
2022/06/12 15:22:14;;;;;;;;;;;;;;;;;;5053647;28;20079;-47
2022/06/12 15:24:40;;;;;;;;;;;;;;;;;;5073056;28;19947;-48
2022/06/12 15:29:50;;;;;;;;;;;;;;;;;;5083248;28;19916;-46
2022/06/12 15:32:16;;;;;;;;;;;;;;;;;;5070445;28;20006;-48
2022/06/12 15:34:42;;;;;;;;;;;;;;;;;;5086633;28;20215;-49
2022/06/12 15:37:08;;;;;;;;;;;;;;;;;;5086468;28;19957;-48
2022/06/12 15:39:34;;;;;;;;;;;;;;;;;;5068326;28;19908;-49
2022/06/12 15:42:00;;;;;;;;;;;;;;;;;;5065924;28;19909;-48
2022/06/12 15:44:26;;;;;;;;;;;;;;;;;;5077617;28;19940;-47
2022/06/12 15:46:52;;;;;;;;;;;;;;;;;;5078532;28;19953;-45
2022/06/12 15:49:19;;;;;;;;;;;;;;;;;;5074676;28;19912;-45
2022/06/12 15:51:45;;;;;;;;;;;;;;;;;;5052678;28;20295;-45
2022/06/12 15:54:17;;;;;;;;;;;;;;;;;;5071808;28;19914;-46
2022/06/12 15:56:42;;;;;;;;;;;;;;;;;;5050112;28;20272;-49
2022/06/12 15:59:08;;;;;;;;;;;;;;;;;;5075352;28;19912;-46
2022/06/12 16:01:34;;;;;;;;;;;;;;;;;;5080088;28;19911;-46
2022/06/12 16:04:00;;;;;;;;;;;;;;;;;;5086025;28;19915;-48
2022/06/12 16:06:26;;;;;;;;;;;;;;;;;;5070436;28;19962;-50
2022/06/12 16:08:52;;;;;;;;;;;;;;;;;;5063293;28;19920;-46
2022/06/12 16:11:19;;;;;;;;;;;;;;;;;;5065048;28;19915;-47
2022/06/12 16:13:45;;;;;;;;;;;;;;;;;;5072538;28;20211;-46
2022/06/12 16:16:11;;;;;;;;;;;;;;;;;;5081091;28;19912;-46
2022/06/12 16:18:37;;;;;;;;;;;;;;;;;;5073540;28;19908;-47
2022/06/12 16:21:03;;;;;;;;;;;;;;;;;;5075048;28;19912;-47
2022/06/12 16:23:29;;;;;;;;;;;;;;;;;;5083721;28;19912;-50
2022/06/12 16:25:56;;;;;;;;;;;;;;;;;;5066252;28;20295;-49
2022/06/12 16:28:22;;;;;;;;;;;;;;;;;;5068523;28;19955;-48
2022/06/12 16:30:48;;;;;;;;;;;;;;;;;;5073350;28;20434;-48
2022/06/12 16:33:14;;;;;;;;;;;;;;;;;;5065125;28;19912;-47
2022/06/12 16:35:41;;;;;;;;;;;;;;;;;;5075843;28;20294;-47
2022/06/12 16:38:07;;;;;;;;;;;;;;;;;;5067314;28;19916;-46
2022/06/12 16:40:34;;;;;;;;;;;;;;;;;;5077502;28;19927;-48
2022/06/12 16:43:00;;;;;;;;;;;;;;;;;;5074486;28;19908;-47
2022/06/12 16:45:26;;;;;;;;;;;;;;;;;;5079499;28;19916;-46
2022/06/12 16:47:51;;;;;;;;;;;;;;;;;;5067045;28;20010;-48
2022/06/12 16:50:17;;;;;;;;;;;;;;;;;;5073611;28;19908;-48
2022/06/12 16:52:43;;;;;;;;;;;;;;;;;;5070576;28;19916;-45
2022/06/12 16:55:10;;;;;;;;;;;;;;;;;;5070753;28;19917;-46
2022/06/12 16:57:37;;;;;;;;;;;;;;;;;;5078098;28;19908;-46
2022/06/12 17:00:03;;;;;;;;;;;;;;;;;;5068923;28;20722;-46